createdAt,value
2017-10-11T00:00:31.911Z,26.05
2017-10-11T00:03:00.287Z,20.35
2017-10-11T00:05:28.667Z,23.00
2017-10-11T00:07:57.018Z,23.38
2017-10-11T00:10:24.656Z,23.60
2017-10-11T00:12:52.266Z,26.87
2017-10-11T00:15:20.606Z,21.62
2017-10-11T00:17:48.217Z,19.55
2017-10-11T00:20:15.840Z,20.95
2017-10-11T00:22:47.066Z,21.35
2017-10-11T00:25:17.511Z,22.70
2017-10-11T00:27:46.628Z,21.17
2017-10-11T00:30:14.675Z,20.70
2017-10-11T00:32:43.046Z,25.55
2017-10-11T00:35:11.018Z,21.67
2017-10-11T00:37:38.635Z,20.88
2017-10-11T00:40:06.692Z,20.75
2017-10-11T00:42:34.324Z,23.90
2017-10-11T00:45:01.931Z,20.75
2017-10-11T00:47:29.551Z,18.98
2017-10-11T00:49:57.163Z,19.75
2017-10-11T00:52:24.770Z,23.62
2017-10-11T00:54:52.382Z,24.25
2017-10-11T00:57:20.094Z,21.10
2017-10-11T00:59:48.206Z,22.15
2017-10-11T01:02:15.852Z,24.70
2017-10-11T01:04:44.240Z,21.80
2017-10-11T01:07:12.625Z,21.62
2017-10-11T01:09:40.262Z,21.00
2017-10-11T01:12:07.931Z,25.12
2017-10-11T01:14:35.547Z,22.95
2017-10-11T01:17:03.186Z,20.95
2017-10-11T01:19:30.862Z,20.48
2017-10-11T01:21:58.483Z,23.90
2017-10-11T01:24:26.097Z,24.10
2017-10-11T01:26:53.867Z,21.08
2017-10-11T01:29:21.510Z,26.37
2017-10-11T01:31:49.120Z,23.55
2017-10-11T01:34:16.703Z,25.33
2017-10-11T01:36:44.322Z,24.73
2017-10-11T01:39:11.914Z,22.80
2017-10-11T01:41:39.506Z,28.00
2017-10-11T01:44:07.139Z,23.30
2017-10-11T01:46:34.795Z,24.30
2017-10-11T01:49:02.445Z,25.37
2017-10-11T01:51:30.078Z,24.90
2017-10-11T01:53:57.684Z,27.67
2017-10-11T01:56:26.075Z,22.73
2017-10-11T01:58:54.452Z,25.48
2017-10-11T02:01:22.787Z,23.05
2017-10-11T02:03:50.399Z,26.37
2017-10-11T02:06:18.017Z,27.83
2017-10-11T02:08:45.627Z,26.92
2017-10-11T02:11:13.779Z,25.55
2017-10-11T02:13:41.350Z,26.20
2017-10-11T02:16:09.685Z,28.42
2017-10-11T02:18:37.338Z,30.83
2017-10-11T02:21:04.922Z,30.37
2017-10-11T02:23:32.498Z,32.50
2017-10-11T02:26:00.870Z,27.50
2017-10-11T02:28:28.592Z,26.67
2017-10-11T02:30:56.201Z,26.45
2017-10-11T02:33:23.820Z,27.92
2017-10-11T02:35:51.438Z,26.70
2017-10-11T02:38:19.047Z,32.45
2017-10-11T02:40:46.663Z,29.77
2017-10-11T02:43:14.275Z,28.17
2017-10-11T02:45:41.896Z,28.70
2017-10-11T02:48:09.505Z,25.65
2017-10-11T02:50:37.099Z,27.20
2017-10-11T02:53:04.708Z,25.30
2017-10-11T02:55:32.248Z,26.95
2017-10-11T02:57:59.864Z,27.40
2017-10-11T03:00:27.476Z,27.52
2017-10-11T03:02:55.089Z,26.80
2017-10-11T03:05:22.706Z,29.42
2017-10-11T03:07:50.323Z,27.35
2017-10-11T03:10:18.734Z,26.10
2017-10-11T03:12:46.361Z,23.58
2017-10-11T03:15:13.978Z,25.10
2017-10-11T03:17:41.590Z,22.77
2017-10-11T03:20:09.209Z,30.02
2017-10-11T03:22:36.829Z,26.85
2017-10-11T03:25:04.410Z,20.23
2017-10-11T03:27:31.989Z,22.20
2017-10-11T03:30:00.471Z,23.90
2017-10-11T03:32:28.090Z,20.60
2017-10-11T03:34:55.702Z,24.02
2017-10-11T03:37:23.317Z,18.52
2017-10-11T03:39:50.939Z,17.85
2017-10-11T03:42:18.558Z,18.48
2017-10-11T03:44:46.205Z,18.05
2017-10-11T03:47:13.815Z,17.08
2017-10-11T03:49:41.422Z,16.58
2017-10-11T03:52:09.030Z,17.83
2017-10-11T03:54:36.638Z,16.10
2017-10-11T03:57:04.208Z,14.20
2017-10-11T03:59:31.817Z,15.57
2017-10-11T04:01:59.423Z,14.90
2017-10-11T04:04:27.034Z,21.35
2017-10-11T04:06:54.657Z,16.62
2017-10-11T04:09:22.233Z,21.77
2017-10-11T04:11:49.859Z,23.23
2017-10-11T04:14:17.513Z,21.08
2017-10-11T04:16:46.127Z,17.05
2017-10-11T04:19:14.475Z,20.92
2017-10-11T04:21:42.146Z,24.92
2017-10-11T04:24:09.783Z,20.80
2017-10-11T04:26:38.162Z,30.40
2017-10-11T04:29:06.541Z,24.15
2017-10-11T04:31:34.918Z,28.77
2017-10-11T04:34:03.306Z,22.83
2017-10-11T04:36:31.689Z,21.15
2017-10-11T04:39:00.075Z,25.05
2017-10-11T04:41:28.455Z,24.12
2017-10-11T04:43:56.848Z,20.27
2017-10-11T04:46:24.459Z,18.87
2017-10-11T04:48:52.074Z,20.08
2017-10-11T04:51:19.701Z,22.35
2017-10-11T04:53:47.334Z,19.62
2017-10-11T04:56:14.947Z,22.60
2017-10-11T04:58:42.559Z,18.73
2017-10-11T05:01:10.166Z,17.65
2017-10-11T05:03:37.782Z,16.70
2017-10-11T05:06:05.392Z,15.82
2017-10-11T05:08:33.014Z,18.45
2017-10-11T05:11:00.623Z,25.10
2017-10-11T05:13:28.242Z,16.65
2017-10-11T05:15:55.819Z,23.02
2017-10-11T05:18:23.426Z,24.35
2017-10-11T05:20:51.038Z,22.83
2017-10-11T05:23:18.663Z,19.83
2017-10-11T05:25:46.270Z,18.67
2017-10-11T05:28:14.620Z,19.33
2017-10-11T05:30:42.282Z,19.40
2017-10-11T05:33:09.890Z,19.10
2017-10-11T05:35:37.509Z,22.35
2017-10-11T05:38:05.132Z,15.80
2017-10-11T05:40:32.741Z,22.92
2017-10-11T05:43:01.115Z,23.23
2017-10-11T05:45:28.729Z,18.33
2017-10-11T05:47:56.301Z,17.23
2017-10-11T05:50:23.917Z,15.85
2017-10-11T05:52:51.535Z,16.40
2017-10-11T05:55:19.110Z,22.70
2017-10-11T05:57:46.734Z,15.35
2017-10-11T06:00:14.310Z,21.20
2017-10-11T06:02:41.886Z,15.95
2017-10-11T06:05:09.463Z,16.83
2017-10-11T06:07:37.054Z,18.45
2017-10-11T06:10:04.665Z,20.12
2017-10-11T06:12:32.285Z,17.20
2017-10-11T06:14:59.895Z,14.13
2017-10-11T06:17:27.513Z,14.68
2017-10-11T06:19:55.085Z,18.20
2017-10-11T06:22:22.652Z,14.65
2017-10-11T06:24:50.265Z,22.62
2017-10-11T06:27:18.597Z,13.55
2017-10-11T06:29:46.171Z,16.25
2017-10-11T06:32:13.803Z,18.30
2017-10-11T06:34:41.417Z,15.20
2017-10-11T06:37:09.033Z,14.57
2017-10-11T06:39:36.649Z,14.27
2017-10-11T06:42:04.264Z,14.60
2017-10-11T06:44:31.841Z,16.15
2017-10-11T06:46:59.422Z,15.52
2017-10-11T06:49:27.034Z,14.05
2017-10-11T06:51:54.658Z,16.50
2017-10-11T06:54:22.273Z,15.30
2017-10-11T06:56:49.938Z,15.40
2017-10-11T06:59:17.558Z,17.12
2017-10-11T07:01:45.170Z,14.23
2017-10-11T07:04:13.924Z,12.52
2017-10-11T07:06:42.884Z,15.02
2017-10-11T07:09:10.510Z,14.00
2017-10-11T07:11:38.173Z,14.40
2017-10-11T07:14:05.817Z,16.48
2017-10-11T07:16:33.394Z,13.35
2017-10-11T07:19:01.057Z,11.73
2017-10-11T07:21:28.683Z,14.07
2017-10-11T07:23:56.354Z,13.80
2017-10-11T07:26:23.981Z,13.50
2017-10-11T07:28:51.597Z,29.77
2017-10-11T07:31:19.179Z,33.40
2017-10-11T07:33:46.801Z,18.00
2017-10-11T07:36:14.422Z,17.33
2017-10-11T07:38:42.051Z,16.20
2017-10-11T07:41:10.588Z,16.27
2017-10-11T07:43:38.170Z,13.93
2017-10-11T07:46:05.935Z,8.38
2017-10-11T07:48:33.524Z,11.68
2017-10-11T07:51:01.144Z,14.18
2017-10-11T07:53:28.771Z,13.02
2017-10-11T07:55:56.405Z,8.27
2017-10-11T07:58:24.030Z,5.60
2017-10-11T08:00:51.617Z,5.60
2017-10-11T08:03:19.278Z,5.05
2017-10-11T08:05:46.904Z,6.32
2017-10-11T08:08:14.481Z,5.07
2017-10-11T08:10:42.118Z,8.82
2017-10-11T08:13:09.742Z,15.02
2017-10-11T08:15:38.144Z,7.97
2017-10-11T08:18:05.756Z,5.60
2017-10-11T08:20:33.336Z,5.85
2017-10-11T08:23:01.717Z,9.13
2017-10-11T08:25:30.120Z,6.85
2017-10-11T08:27:57.779Z,9.93
2017-10-11T08:30:25.394Z,5.93
2017-10-11T08:32:53.018Z,14.02
2017-10-11T08:35:21.280Z,10.02
2017-10-11T08:37:48.895Z,5.57
2017-10-11T08:40:16.511Z,8.50
2017-10-11T08:42:44.130Z,11.98
2017-10-11T08:45:11.744Z,5.65
2017-10-11T08:47:39.326Z,4.50
2017-10-11T08:50:06.898Z,14.13
2017-10-11T08:52:34.526Z,7.18
2017-10-11T08:55:02.904Z,11.77
2017-10-11T08:57:31.283Z,5.90
2017-10-11T08:59:58.901Z,5.80
2017-10-11T09:02:26.510Z,7.90
2017-10-11T09:04:54.124Z,4.55
2017-10-11T09:07:21.731Z,5.03
2017-10-11T09:09:49.338Z,4.78
2017-10-11T09:12:18.137Z,7.55
2017-10-11T09:14:45.711Z,4.25
2017-10-11T09:17:13.327Z,6.00
2017-10-11T09:19:40.959Z,10.70
2017-10-11T09:22:08.567Z,6.18
2017-10-11T09:24:36.174Z,5.72
2017-10-11T09:27:04.564Z,11.85
2017-10-11T09:29:36.347Z,4.68
2017-10-11T09:32:04.350Z,8.85
2017-10-11T09:34:31.992Z,6.57
2017-10-11T09:36:59.588Z,8.02
2017-10-11T09:39:27.243Z,6.47
2017-10-11T09:41:54.899Z,9.60
2017-10-11T09:44:23.231Z,5.20
2017-10-11T09:46:50.835Z,5.82
2017-10-11T09:49:18.560Z,7.57
2017-10-11T09:51:46.230Z,6.45
2017-10-11T09:54:14.646Z,8.95
2017-10-11T09:56:42.276Z,7.43
2017-10-11T09:59:09.931Z,6.10
2017-10-11T10:01:37.542Z,4.12
2017-10-11T10:04:05.182Z,7.03
2017-10-11T10:06:32.912Z,4.70
2017-10-11T10:09:00.529Z,9.90
2017-10-11T10:11:28.914Z,3.67
2017-10-11T10:13:56.482Z,3.53
2017-10-11T10:16:24.098Z,4.25
2017-10-11T10:18:51.707Z,3.33
2017-10-11T10:21:19.280Z,3.80
2017-10-11T10:23:46.890Z,3.67
2017-10-11T10:26:14.502Z,4.85
2017-10-11T10:28:42.983Z,5.15
2017-10-11T10:31:10.586Z,3.20
2017-10-11T10:33:38.206Z,10.68
2017-10-11T10:36:05.816Z,4.85
2017-10-11T10:38:33.390Z,13.07
2017-10-11T10:41:03.608Z,8.57
2017-10-11T10:43:32.003Z,4.57
2017-10-11T10:46:00.558Z,5.43
2017-10-11T10:48:28.673Z,3.03
2017-10-11T10:50:56.362Z,3.30
2017-10-11T10:53:24.020Z,12.40
2017-10-11T10:55:51.714Z,3.62
2017-10-11T10:58:19.410Z,3.65
2017-10-11T11:00:47.073Z,4.70
2017-10-11T11:03:14.768Z,6.12
2017-10-11T11:05:42.347Z,2.42
2017-10-11T11:08:10.360Z,2.80
2017-10-11T11:10:38.318Z,4.32
2017-10-11T11:13:05.897Z,2.70
2017-10-11T11:15:33.551Z,3.58
2017-10-11T11:18:01.165Z,3.80
2017-10-11T11:20:28.782Z,3.70
2017-10-11T11:22:56.409Z,4.30
2017-10-11T11:25:24.066Z,5.60
2017-10-11T11:27:51.686Z,4.57
2017-10-11T11:30:20.088Z,3.10
2017-10-11T11:32:47.762Z,3.17
2017-10-11T11:35:15.385Z,4.40
2017-10-11T11:37:42.996Z,2.47
2017-10-11T11:40:10.631Z,9.20
2017-10-11T11:42:38.365Z,7.18
2017-10-11T11:45:05.985Z,3.83
2017-10-11T11:47:33.609Z,3.08
2017-10-11T11:50:01.223Z,17.42
2017-10-11T11:52:29.221Z,8.10
2017-10-11T11:54:56.830Z,7.00
2017-10-11T11:57:24.913Z,3.42
2017-10-11T11:59:53.290Z,3.42
2017-10-11T12:02:22.505Z,2.67
2017-10-11T12:04:51.348Z,2.55
2017-10-11T12:07:18.920Z,8.88
2017-10-11T12:09:47.058Z,2.37
2017-10-11T12:12:15.489Z,6.20
2017-10-11T12:14:43.104Z,2.45
2017-10-11T12:17:11.313Z,4.15
2017-10-11T12:19:39.925Z,4.45
2017-10-11T12:22:07.654Z,5.93
2017-10-11T12:24:39.567Z,3.87
2017-10-11T12:27:08.587Z,2.70
2017-10-11T12:29:36.831Z,3.28
2017-10-11T12:32:04.785Z,7.37
2017-10-11T12:34:32.465Z,2.85
2017-10-11T12:37:00.766Z,2.35
2017-10-11T12:39:28.429Z,12.10
2017-10-11T12:41:56.394Z,2.50
2017-10-11T12:44:24.003Z,1.80
2017-10-11T12:46:53.409Z,3.62
2017-10-11T12:49:21.055Z,2.53
2017-10-11T12:51:49.159Z,3.80
2017-10-11T12:54:18.937Z,4.18
2017-10-11T12:56:46.546Z,6.57
2017-10-11T12:59:15.922Z,5.18
2017-10-11T13:01:43.538Z,2.72
2017-10-11T13:04:11.266Z,3.50
2017-10-11T13:06:39.538Z,3.65
2017-10-11T13:09:08.490Z,8.25
2017-10-11T13:11:37.271Z,3.55
2017-10-11T13:14:05.591Z,2.70
2017-10-11T13:16:33.537Z,3.30
2017-10-11T13:19:01.149Z,3.47
2017-10-11T13:21:28.757Z,2.60
2017-10-11T13:23:56.377Z,4.00
2017-10-11T13:26:23.985Z,7.37
2017-10-11T13:28:51.610Z,4.57
2017-10-11T13:31:19.177Z,4.15
2017-10-11T13:33:46.745Z,3.33
2017-10-11T13:36:14.357Z,9.52
2017-10-11T13:38:41.963Z,3.97
2017-10-11T13:41:09.629Z,5.20
2017-10-11T13:43:37.198Z,3.17
2017-10-11T13:46:04.783Z,2.65
2017-10-11T13:48:32.394Z,4.22
2017-10-11T13:50:59.961Z,4.70
2017-10-11T13:53:27.574Z,9.73
2017-10-11T13:55:55.179Z,2.30
2017-10-11T13:58:22.793Z,4.03
2017-10-11T14:00:52.079Z,5.00
2017-10-11T14:03:19.696Z,3.30
2017-10-11T14:05:47.315Z,3.28
2017-10-11T14:08:14.924Z,6.82
2017-10-11T14:10:42.534Z,4.90
2017-10-11T14:13:10.104Z,6.30
2017-10-11T14:15:38.481Z,2.55
2017-10-11T14:18:06.901Z,4.35
2017-10-11T14:20:34.479Z,11.07
2017-10-11T14:23:02.098Z,3.97
2017-10-11T14:25:30.485Z,6.12
2017-10-11T14:27:58.104Z,3.70
2017-10-11T14:30:25.726Z,8.38
2017-10-11T14:32:53.811Z,7.72
2017-10-11T14:35:21.496Z,3.58
2017-10-11T14:37:49.069Z,4.15
2017-10-11T14:40:16.674Z,3.42
2017-10-11T14:42:45.012Z,6.68
2017-10-11T14:45:12.630Z,6.10
2017-10-11T14:47:40.271Z,8.23
2017-10-11T14:50:08.103Z,5.87
2017-10-11T14:52:47.876Z,5.07
2017-10-11T14:55:15.455Z,12.07
2017-10-11T14:57:43.066Z,11.12
2017-10-11T15:00:10.635Z,10.98
2017-10-11T15:02:38.249Z,10.65
2017-10-11T15:05:05.854Z,5.35
2017-10-11T15:07:33.474Z,7.53
2017-10-11T15:10:01.114Z,8.95
2017-10-11T15:12:28.728Z,6.53
2017-10-11T15:14:56.339Z,11.73
2017-10-11T15:17:23.946Z,8.82
2017-10-11T15:19:51.542Z,15.77
2017-10-11T15:22:19.165Z,18.70
2017-10-11T15:54:43.009Z,11.50
2017-10-11T15:57:10.624Z,16.27
2017-10-11T15:59:39.054Z,14.50
2017-10-11T16:02:06.678Z,9.85
2017-10-11T16:04:35.058Z,11.10
2017-10-11T16:07:03.832Z,20.70
2017-10-11T16:09:32.229Z,10.15
2017-10-11T16:12:00.610Z,12.88
2017-10-11T16:14:28.306Z,12.27
2017-10-11T16:16:55.914Z,17.77
2017-10-11T16:19:23.530Z,26.55
2017-10-11T16:21:51.109Z,29.37
2017-10-11T16:24:22.134Z,28.70
2017-10-11T16:26:49.751Z,28.98
2017-10-11T16:29:17.382Z,33.03
2017-10-11T16:31:45.001Z,26.92
2017-10-11T16:34:12.662Z,22.80
2017-10-11T16:36:40.384Z,20.42
2017-10-11T16:39:08.751Z,13.05
2017-10-11T16:41:36.369Z,16.00
2017-10-11T16:44:03.987Z,13.38
2017-10-11T16:46:32.372Z,10.05
2017-10-11T16:49:00.773Z,8.48
2017-10-11T16:51:28.346Z,10.15
2017-10-11T16:53:55.955Z,8.85
2017-10-11T16:56:23.585Z,10.38
2017-10-11T16:58:52.426Z,8.05
2017-10-11T17:01:20.809Z,15.45
2017-10-11T17:03:49.192Z,11.23
2017-10-11T17:06:16.830Z,12.15
2017-10-11T17:08:44.415Z,14.07
2017-10-11T17:11:12.026Z,11.68
2017-10-11T17:13:39.635Z,10.15
2017-10-11T17:16:08.019Z,27.98
2017-10-11T17:18:35.590Z,23.05
2017-10-11T17:21:03.171Z,24.55
2017-10-11T17:23:30.791Z,22.55
2017-10-11T17:25:58.408Z,22.45
2017-10-11T17:28:26.071Z,17.75
2017-10-11T17:30:53.656Z,13.23
2017-10-11T17:33:22.044Z,11.50
2017-10-11T17:35:50.429Z,7.45
2017-10-11T17:38:18.802Z,8.65
2017-10-11T17:40:47.203Z,9.48
2017-10-11T17:43:14.830Z,8.50
2017-10-11T17:45:42.443Z,7.40
2017-10-11T17:48:10.055Z,7.75
2017-10-11T17:50:37.665Z,11.00
2017-10-11T17:53:05.291Z,10.52
2017-10-11T17:55:32.955Z,16.58
2017-10-11T17:58:00.562Z,12.10
2017-10-11T18:00:28.140Z,7.32
2017-10-11T18:02:55.787Z,6.87
2017-10-11T18:05:23.452Z,8.30
2017-10-11T18:07:51.063Z,13.35
2017-10-11T18:10:19.496Z,21.40
2017-10-11T18:12:47.074Z,11.32
2017-10-11T18:15:14.683Z,13.60
2017-10-11T18:17:42.439Z,13.25
2017-10-11T18:20:10.027Z,10.15
2017-10-11T18:22:37.643Z,11.12
2017-10-11T18:25:06.022Z,11.10
2017-10-11T18:27:34.364Z,10.35
2017-10-11T18:30:01.992Z,15.00
2017-10-11T18:32:29.574Z,20.40
2017-10-11T18:34:57.180Z,11.55
2017-10-11T18:37:24.810Z,14.68
2017-10-11T18:39:52.434Z,13.23
2017-10-11T18:42:20.072Z,10.13
2017-10-11T18:44:48.461Z,11.00
2017-10-11T18:47:16.757Z,15.95
2017-10-11T18:49:44.301Z,12.88
2017-10-11T18:52:11.919Z,13.32
2017-10-11T18:54:39.591Z,16.37
2017-10-11T18:57:07.211Z,14.55
2017-10-11T18:59:34.837Z,18.95
2017-10-11T19:02:03.251Z,14.18
2017-10-11T19:04:30.878Z,13.15
2017-10-11T19:06:58.458Z,14.45
2017-10-11T19:09:26.044Z,16.35
2017-10-11T19:11:53.659Z,12.18
2017-10-11T19:14:21.270Z,19.23
2017-10-11T19:16:48.922Z,13.48
2017-10-11T19:19:16.548Z,11.65
2017-10-11T19:21:44.137Z,9.02
2017-10-11T19:24:12.722Z,10.05
2017-10-11T19:26:40.300Z,9.45
2017-10-11T19:29:07.884Z,16.10
2017-10-11T19:31:35.766Z,10.95
2017-10-11T19:34:03.687Z,15.82
2017-10-11T19:36:31.308Z,11.38
2017-10-11T19:38:59.645Z,8.40
2017-10-11T19:41:27.258Z,9.95
2017-10-11T19:43:54.836Z,17.62
2017-10-11T19:46:22.452Z,13.15
2017-10-11T19:48:50.140Z,14.23
2017-10-11T19:51:17.806Z,7.35
2017-10-11T19:53:45.424Z,9.63
2017-10-11T19:56:13.052Z,7.68
2017-10-11T19:58:40.667Z,9.90
2017-10-11T20:01:08.286Z,12.32
2017-10-11T20:03:35.894Z,9.82
2017-10-11T20:06:03.472Z,11.12
2017-10-11T20:08:31.045Z,21.42
2017-10-11T20:10:58.621Z,9.32
2017-10-11T20:13:26.193Z,12.07
2017-10-11T20:15:53.806Z,8.77
2017-10-11T20:18:21.414Z,13.80
2017-10-11T20:20:49.043Z,14.23
2017-10-11T20:23:16.674Z,15.85
2017-10-11T20:25:44.291Z,14.57
2017-10-11T20:28:11.911Z,12.35
2017-10-11T20:30:39.523Z,14.32
2017-10-11T20:33:09.158Z,14.43
2017-10-11T20:35:36.849Z,13.07
2017-10-11T20:38:04.459Z,9.40
2017-10-11T20:40:32.084Z,16.42
2017-10-11T20:42:59.717Z,15.23
2017-10-11T20:45:27.331Z,14.45
2017-10-11T20:47:54.946Z,22.08
2017-10-11T20:50:23.322Z,10.25
2017-10-11T20:52:50.903Z,11.25
2017-10-11T20:55:18.521Z,12.90
2017-10-11T20:57:46.227Z,9.43
2017-10-11T21:00:13.839Z,22.50
2017-10-11T21:02:41.454Z,14.87
2017-10-11T21:05:09.062Z,20.65
2017-10-11T21:07:36.692Z,13.05
2017-10-11T21:10:04.323Z,20.70
2017-10-11T21:12:31.948Z,11.82
2017-10-11T21:14:59.529Z,12.98
2017-10-11T21:17:27.139Z,10.80
2017-10-11T21:19:54.750Z,18.33
2017-10-11T21:22:22.364Z,18.40
2017-10-11T21:24:49.978Z,15.27
2017-10-11T21:27:17.570Z,10.70
2017-10-11T21:29:45.183Z,13.30
2017-10-11T21:32:12.809Z,14.35
2017-10-11T21:34:40.418Z,12.93
2017-10-11T21:37:08.040Z,12.02
2017-10-11T21:39:35.660Z,7.40
2017-10-11T21:42:03.283Z,7.75
2017-10-11T21:44:30.999Z,7.87
2017-10-11T21:46:58.612Z,7.47
2017-10-11T21:49:26.185Z,19.48
2017-10-11T21:51:54.528Z,9.25
2017-10-11T21:54:22.153Z,8.30
2017-10-11T21:56:49.763Z,6.00
2017-10-11T21:59:17.336Z,14.48
2017-10-11T22:01:45.149Z,4.87
2017-10-11T22:04:12.746Z,10.23
2017-10-11T22:06:40.328Z,13.55
2017-10-11T22:09:07.948Z,6.53
2017-10-11T22:11:35.567Z,10.18
2017-10-11T22:14:03.189Z,9.10
2017-10-11T22:16:31.248Z,6.22
2017-10-11T22:18:58.841Z,15.88
2017-10-11T22:21:26.459Z,5.45
2017-10-11T22:23:54.086Z,8.52
2017-10-11T22:26:21.723Z,8.48
2017-10-11T22:28:49.395Z,11.25
2017-10-11T22:31:17.029Z,6.05
2017-10-11T22:33:44.642Z,4.05
2017-10-11T22:36:12.252Z,3.95
2017-10-11T22:38:39.862Z,6.12
2017-10-11T22:41:07.482Z,6.60
2017-10-11T22:43:35.056Z,8.65
2017-10-11T22:46:02.679Z,12.90
2017-10-11T22:48:30.335Z,6.07
2017-10-11T22:50:57.876Z,4.00
2017-10-11T22:53:25.498Z,30.90
2017-10-11T22:55:53.843Z,9.02
2017-10-11T22:58:21.461Z,7.75
2017-10-11T23:00:49.076Z,7.05
2017-10-11T23:03:16.691Z,4.85
2017-10-11T23:05:44.268Z,14.13
2017-10-11T23:08:11.810Z,8.48
2017-10-11T23:10:39.422Z,5.37
2017-10-11T23:13:07.000Z,6.43
2017-10-11T23:15:34.615Z,4.47
2017-10-11T23:18:02.184Z,6.47
2017-10-11T23:20:29.755Z,5.35
2017-10-11T23:22:57.373Z,6.37
2017-10-11T23:25:24.950Z,8.13
2017-10-11T23:27:52.558Z,4.20
2017-10-11T23:30:20.212Z,4.70
2017-10-11T23:32:47.827Z,11.45
2017-10-11T23:35:15.400Z,6.97
2017-10-11T23:37:43.029Z,3.78
2017-10-11T23:40:10.642Z,5.00
2017-10-11T23:42:38.215Z,5.43
2017-10-11T23:45:05.838Z,5.90
2017-10-11T23:47:33.409Z,7.03
2017-10-11T23:50:01.027Z,6.25
2017-10-11T23:52:28.601Z,5.75
2017-10-11T23:54:56.210Z,6.97
2017-10-11T23:57:23.825Z,5.97
2017-10-11T23:59:51.439Z,4.25
